Time;durP1;ratioP1;P1;durP2;ratioP2;P2;SDS_P1;SDS_P2;PMS_P1;PMS_P2;Temp;Humidity;BMP_temperature;BMP_pressure;BME280_temperature;BME280_humidity;BME280_pressure;Samples;Min_cycle;Max_cycle;Signal;HPM_P1;HPM_P2
2022/04/18 00:00:31;;;;;;;11.60;10.00;;;;;;;;;;5009981;28;20211;-70
2022/04/18 00:02:58;;;;;;;12.60;11.13;;;;;;;;;;5005831;28;20205;-71
2022/04/18 00:05:24;;;;;;;10.73;8.90;;;;;;;;;;5007672;28;20681;-70
2022/04/18 00:07:49;;;;;;;13.77;10.03;;;;;;;;;;5007371;28;20201;-70
2022/04/18 00:10:14;;;;;;;9.73;8.60;;;;;;;;;;5000530;28;20214;-70
2022/04/18 00:12:39;;;;;;;11.93;10.33;;;;;;;;;;5008664;28;20183;-70
2022/04/18 00:15:05;;;;;;;12.00;10.07;;;;;;;;;;5009805;28;20175;-71
2022/04/18 00:17:30;;;;;;;12.47;10.20;;;;;;;;;;5008730;28;20226;-70
2022/04/18 00:19:55;;;;;;;12.97;10.67;;;;;;;;;;5010759;28;20206;-70
2022/04/18 00:22:20;;;;;;;13.27;10.77;;;;;;;;;;5005357;28;20282;-70
2022/04/18 00:24:46;;;;;;;13.00;10.63;;;;;;;;;;5003397;28;20171;-71
2022/04/18 00:27:11;;;;;;;11.40;9.77;;;;;;;;;;5009549;28;20226;-71
2022/04/18 00:29:36;;;;;;;14.33;10.13;;;;;;;;;;5000331;28;20191;-71
2022/04/18 00:32:02;;;;;;;14.03;10.30;;;;;;;;;;4999971;28;20175;-71
2022/04/18 00:34:27;;;;;;;12.10;9.67;;;;;;;;;;5011215;28;20734;-71
2022/04/18 00:36:52;;;;;;;11.77;9.90;;;;;;;;;;5011056;28;20183;-71
2022/04/18 00:39:17;;;;;;;12.77;10.20;;;;;;;;;;5010098;28;20221;-71
2022/04/18 00:41:43;;;;;;;11.37;10.13;;;;;;;;;;5005455;28;20187;-70
2022/04/18 00:44:08;;;;;;;12.30;10.60;;;;;;;;;;5011190;28;20166;-70
2022/04/18 00:46:33;;;;;;;11.50;10.30;;;;;;;;;;5011394;28;20197;-71
2022/04/18 00:48:58;;;;;;;13.50;10.77;;;;;;;;;;5012737;28;20210;-71
2022/04/18 00:51:24;;;;;;;11.50;10.17;;;;;;;;;;5010443;28;20199;-71
2022/04/18 00:53:52;;;;;;;13.87;10.37;;;;;;;;;;5008920;28;20649;-71
2022/04/18 00:56:18;;;;;;;15.13;10.80;;;;;;;;;;5011830;28;20178;-71
2022/04/18 00:58:44;;;;;;;12.93;10.80;;;;;;;;;;5011344;28;20172;-71
2022/04/18 01:01:09;;;;;;;14.20;11.27;;;;;;;;;;5012857;28;20211;-71
2022/04/18 01:03:35;;;;;;;12.97;9.93;;;;;;;;;;5006769;28;20194;-71
2022/04/18 01:06:00;;;;;;;13.60;10.40;;;;;;;;;;5013808;28;20167;-71
2022/04/18 01:08:27;;;;;;;12.90;10.43;;;;;;;;;;5013600;28;20225;-71
2022/04/18 01:10:53;;;;;;;12.67;9.70;;;;;;;;;;5013758;28;20656;-72
2022/04/18 01:13:18;;;;;;;14.23;10.63;;;;;;;;;;5013657;28;20266;-70
2022/04/18 01:15:43;;;;;;;12.90;10.87;;;;;;;;;;5013355;28;20167;-71
2022/04/18 01:18:08;;;;;;;12.77;10.80;;;;;;;;;;5013329;28;20190;-71
2022/04/18 01:20:35;;;;;;;13.70;10.17;;;;;;;;;;5014270;28;20227;-71
2022/04/18 01:23:01;;;;;;;13.33;11.27;;;;;;;;;;5014076;28;20601;-71
2022/04/18 01:30:54;;;;;;;12.50;10.57;;;;;;;;;;5004884;28;20202;-71
2022/04/18 01:33:20;;;;;;;14.33;10.37;;;;;;;;;;5013801;28;20175;-71
2022/04/18 01:35:45;;;;;;;13.17;10.53;;;;;;;;;;5014475;28;20171;-71
2022/04/18 01:38:10;;;;;;;13.60;10.90;;;;;;;;;;5011027;28;20179;-70
2022/04/18 01:40:36;;;;;;;12.57;9.67;;;;;;;;;;5014348;28;20195;-71
2022/04/18 01:43:01;;;;;;;13.57;11.10;;;;;;;;;;5014045;28;20175;-69
2022/04/18 01:45:26;;;;;;;12.70;10.70;;;;;;;;;;5013790;28;20229;-70
2022/04/18 01:47:52;;;;;;;12.20;10.73;;;;;;;;;;4998426;28;20195;-71
2022/04/18 01:50:17;;;;;;;13.90;10.77;;;;;;;;;;5006224;28;20191;-71
2022/04/18 01:52:43;;;;;;;12.13;10.80;;;;;;;;;;5009716;28;20183;-68
2022/04/18 01:55:08;;;;;;;12.37;10.80;;;;;;;;;;5008331;28;20183;-69
2022/04/18 01:57:33;;;;;;;12.57;10.83;;;;;;;;;;5009405;28;20262;-69
2022/04/18 01:59:58;;;;;;;13.23;10.37;;;;;;;;;;5002595;28;20684;-70
2022/04/18 02:02:23;;;;;;;13.70;10.47;;;;;;;;;;5010749;28;20183;-71
2022/04/18 02:04:49;;;;;;;12.13;10.33;;;;;;;;;;5008857;28;20962;-71
2022/04/18 02:07:14;;;;;;;13.87;10.20;;;;;;;;;;5010199;28;20214;-71
2022/04/18 02:09:40;;;;;;;13.73;11.37;;;;;;;;;;5012038;28;20171;-71
2022/04/18 02:12:05;;;;;;;11.73;10.50;;;;;;;;;;5007703;28;20171;-71
2022/04/18 02:14:30;;;;;;;10.97;9.13;;;;;;;;;;5010425;28;20202;-71
2022/04/18 02:16:56;;;;;;;13.20;10.30;;;;;;;;;;5012153;28;20221;-71
2022/04/18 02:19:21;;;;;;;12.40;9.33;;;;;;;;;;5010252;28;20193;-70
2022/04/18 02:21:47;;;;;;;12.20;9.80;;;;;;;;;;5007202;28;20190;-70
2022/04/18 02:24:14;;;;;;;11.03;9.53;;;;;;;;;;5008518;28;20174;-70
2022/04/18 02:26:39;;;;;;;10.60;9.20;;;;;;;;;;5011610;28;20242;-71
2022/04/18 02:29:04;;;;;;;11.17;9.40;;;;;;;;;;5011892;28;20211;-71
2022/04/18 02:31:29;;;;;;;13.17;9.50;;;;;;;;;;5007266;28;20549;-71
2022/04/18 02:33:54;;;;;;;11.80;9.07;;;;;;;;;;5011133;28;20178;-71
2022/04/18 02:36:20;;;;;;;13.53;10.47;;;;;;;;;;5010954;28;20616;-71
2022/04/18 02:38:45;;;;;;;12.37;9.27;;;;;;;;;;5009769;28;20185;-70
2022/04/18 02:41:10;;;;;;;12.83;9.90;;;;;;;;;;4998849;28;20199;-70
2022/04/18 02:43:35;;;;;;;10.93;9.53;;;;;;;;;;5009674;28;20174;-71
2022/04/18 02:46:00;;;;;;;10.97;9.33;;;;;;;;;;5011836;28;20205;-71
2022/04/18 02:48:26;;;;;;;11.83;9.60;;;;;;;;;;5011254;28;20203;-69
2022/04/18 02:50:51;;;;;;;11.30;9.43;;;;;;;;;;5006955;28;20190;-69
2022/04/18 02:53:16;;;;;;;11.50;9.60;;;;;;;;;;5003677;28;20600;-70
2022/04/18 02:55:42;;;;;;;12.63;9.70;;;;;;;;;;5005697;28;20191;-70
2022/04/18 02:58:07;;;;;;;13.73;9.30;;;;;;;;;;5001620;28;20277;-69
2022/04/18 03:00:32;;;;;;;11.47;9.30;;;;;;;;;;5010865;28;20290;-69
2022/04/18 03:02:57;;;;;;;10.77;9.47;;;;;;;;;;5007786;28;20179;-69
2022/04/18 03:05:22;;;;;;;11.90;8.90;;;;;;;;;;5010836;28;20191;-69
2022/04/18 03:07:47;;;;;;;14.50;10.87;;;;;;;;;;5004763;28;20293;-70
2022/04/18 03:10:13;;;;;;;10.17;9.00;;;;;;;;;;5010628;28;20586;-69
2022/04/18 03:12:38;;;;;;;10.43;9.43;;;;;;;;;;5010000;28;20178;-71
2022/04/18 03:15:03;;;;;;;12.17;9.03;;;;;;;;;;5008686;28;20183;-69
2022/04/18 03:17:28;;;;;;;10.40;8.70;;;;;;;;;;5004693;28;20309;-69
2022/04/18 03:19:54;;;;;;;11.07;9.00;;;;;;;;;;5011359;28;20195;-70
2022/04/18 03:22:19;;;;;;;10.40;9.23;;;;;;;;;;5010717;28;20197;-69
2022/04/18 03:24:45;;;;;;;9.73;8.80;;;;;;;;;;5007036;28;20179;-69
2022/04/18 03:27:10;;;;;;;10.87;8.70;;;;;;;;;;5006414;28;20280;-70
2022/04/18 03:29:37;;;;;;;10.43;8.27;;;;;;;;;;4994989;28;20175;-71
2022/04/18 03:32:02;;;;;;;10.23;8.43;;;;;;;;;;5009353;28;20175;-71
2022/04/18 03:34:27;;;;;;;11.33;9.20;;;;;;;;;;5007051;28;20187;-71
2022/04/18 03:39:52;;;;;;;9.63;7.77;;;;;;;;;;5005479;28;20216;-68
2022/04/18 03:42:31;;;;;;;11.97;7.87;;;;;;;;;;5002730;28;20287;-71
2022/04/18 03:44:58;;;;;;;9.80;7.23;;;;;;;;;;4996728;28;20202;-71
2022/04/18 03:47:24;;;;;;;9.57;7.60;;;;;;;;;;5001708;28;20641;-71
2022/04/18 03:49:49;;;;;;;10.30;7.50;;;;;;;;;;5009638;28;20199;-71
2022/04/18 03:52:14;;;;;;;16.43;8.77;;;;;;;;;;5001899;28;20179;-69
2022/04/18 03:54:43;;;;;;;12.23;7.63;;;;;;;;;;5007338;28;20178;-71
2022/04/18 03:57:08;;;;;;;8.73;7.50;;;;;;;;;;5009394;28;20190;-71
2022/04/18 03:59:33;;;;;;;7.67;6.80;;;;;;;;;;4999731;28;20187;-71
2022/04/18 04:01:59;;;;;;;10.77;7.80;;;;;;;;;;4998987;28;20187;-71
2022/04/18 04:04:24;;;;;;;9.67;7.33;;;;;;;;;;5000267;28;20266;-70
2022/04/18 04:06:49;;;;;;;8.77;7.63;;;;;;;;;;5008200;28;20248;-69
2022/04/18 04:09:14;;;;;;;11.33;7.33;;;;;;;;;;5007150;28;20179;-71
2022/04/18 04:11:40;;;;;;;11.00;7.33;;;;;;;;;;5009582;28;20229;-69
2022/04/18 04:14:06;;;;;;;8.20;7.40;;;;;;;;;;5008753;28;20183;-70
2022/04/18 04:16:31;;;;;;;8.00;6.67;;;;;;;;;;5002382;28;20186;-70
2022/04/18 04:18:56;;;;;;;9.00;7.13;;;;;;;;;;5008250;28;20183;-70
2022/04/18 04:21:21;;;;;;;9.87;7.33;;;;;;;;;;5009059;28;20290;-69
2022/04/18 04:23:46;;;;;;;8.80;7.33;;;;;;;;;;5006612;28;20433;-69
2022/04/18 04:26:12;;;;;;;10.47;6.83;;;;;;;;;;5015510;28;20175;-69
2022/04/18 04:28:37;;;;;;;8.00;7.20;;;;;;;;;;5013506;28;20478;-69
2022/04/18 04:31:05;;;;;;;9.07;7.13;;;;;;;;;;5008063;28;20576;-69
2022/04/18 04:33:31;;;;;;;10.37;6.73;;;;;;;;;;5014136;28;20545;-69
2022/04/18 04:35:58;;;;;;;10.17;6.37;;;;;;;;;;5007454;28;20207;-69
2022/04/18 04:38:23;;;;;;;7.97;6.23;;;;;;;;;;5005810;28;20190;-69
2022/04/18 04:40:49;;;;;;;11.23;6.57;;;;;;;;;;5012345;28;20203;-70
2022/04/18 04:43:14;;;;;;;6.80;5.93;;;;;;;;;;5005974;28;20559;-69
2022/04/18 04:45:39;;;;;;;10.17;7.10;;;;;;;;;;5005781;28;20210;-69
2022/04/18 04:48:05;;;;;;;9.70;6.87;;;;;;;;;;5013284;28;20211;-69
2022/04/18 04:50:31;;;;;;;9.10;7.33;;;;;;;;;;5008872;28;20202;-71
2022/04/18 04:52:56;;;;;;;10.33;7.47;;;;;;;;;;5010390;28;20255;-71
2022/04/18 04:55:22;;;;;;;9.60;7.47;;;;;;;;;;5001532;28;20621;-69
2022/04/18 04:57:47;;;;;;;8.93;6.60;;;;;;;;;;4994719;28;20187;-70
2022/04/18 05:00:12;;;;;;;9.83;6.90;;;;;;;;;;5007770;28;20785;-69
2022/04/18 05:02:37;;;;;;;8.90;6.93;;;;;;;;;;5009544;28;20187;-69
2022/04/18 05:05:03;;;;;;;10.30;6.90;;;;;;;;;;5010936;28;20631;-69
2022/04/18 05:07:28;;;;;;;11.07;7.03;;;;;;;;;;5009037;28;20218;-69
2022/04/18 05:09:53;;;;;;;11.03;7.13;;;;;;;;;;5002654;28;20195;-69
2022/04/18 05:12:18;;;;;;;8.10;6.70;;;;;;;;;;5005283;28;20195;-69
2022/04/18 05:14:44;;;;;;;8.40;6.53;;;;;;;;;;5012709;28;20592;-70
2022/04/18 05:17:09;;;;;;;9.63;7.40;;;;;;;;;;5014090;28;20190;-70
2022/04/18 05:19:34;;;;;;;13.53;7.57;;;;;;;;;;5006791;28;20203;-71
2022/04/18 05:21:59;;;;;;;11.40;7.27;;;;;;;;;;5005842;28;20187;-71
2022/04/18 05:24:24;;;;;;;10.23;7.03;;;;;;;;;;5000223;28;20179;-68
2022/04/18 05:26:49;;;;;;;9.20;7.03;;;;;;;;;;5001845;28;20199;-71
2022/04/18 05:29:15;;;;;;;10.50;6.67;;;;;;;;;;5009176;28;20297;-70
2022/04/18 05:31:40;;;;;;;7.67;6.67;;;;;;;;;;5012556;28;20191;-70
2022/04/18 05:34:05;;;;;;;10.17;7.37;;;;;;;;;;5006519;28;20641;-70
2022/04/18 05:36:30;;;;;;;8.47;7.30;;;;;;;;;;5004736;28;20266;-70
2022/04/18 05:38:55;;;;;;;10.70;6.30;;;;;;;;;;5003637;28;20662;-69
2022/04/18 05:41:21;;;;;;;6.87;6.00;;;;;;;;;;5001987;28;20218;-70
2022/04/18 05:43:49;;;;;;;7.43;6.37;;;;;;;;;;5011941;28;20194;-69
2022/04/18 05:46:14;;;;;;;9.20;6.17;;;;;;;;;;5010500;28;20722;-70
2022/04/18 05:48:39;;;;;;;7.23;6.30;;;;;;;;;;5002081;28;20179;-70
2022/04/18 05:51:04;;;;;;;7.07;5.67;;;;;;;;;;5012486;28;20199;-69
2022/04/18 05:53:30;;;;;;;8.07;6.20;;;;;;;;;;5009838;28;20575;-70
2022/04/18 05:55:55;;;;;;;8.47;7.00;;;;;;;;;;5005060;28;20178;-70
2022/04/18 05:58:20;;;;;;;8.03;6.43;;;;;;;;;;5010392;28;20608;-71
2022/04/18 06:00:45;;;;;;;8.23;6.30;;;;;;;;;;5010258;28;20214;-69
2022/04/18 06:03:11;;;;;;;9.50;6.37;;;;;;;;;;5012874;28;20752;-69
2022/04/18 06:05:36;;;;;;;10.60;6.67;;;;;;;;;;5011272;28;20182;-69
2022/04/18 06:08:01;;;;;;;6.63;5.80;;;;;;;;;;5011474;28;20245;-69
2022/04/18 06:10:26;;;;;;;6.10;5.53;;;;;;;;;;5005546;28;20249;-70
2022/04/18 06:12:52;;;;;;;8.27;5.53;;;;;;;;;;5008789;28;20645;-69
2022/04/18 06:15:17;;;;;;;7.77;6.33;;;;;;;;;;5012640;28;20183;-69
2022/04/18 06:17:42;;;;;;;6.50;5.53;;;;;;;;;;5008472;28;20183;-69
2022/04/18 06:20:08;;;;;;;7.00;5.87;;;;;;;;;;5007488;28;20195;-69
2022/04/18 06:22:33;;;;;;;6.63;5.83;;;;;;;;;;5009895;28;20653;-70
2022/04/18 06:24:58;;;;;;;6.03;4.70;;;;;;;;;;5010216;28;20175;-70
2022/04/18 06:27:23;;;;;;;6.07;5.33;;;;;;;;;;5010954;28;20202;-70
2022/04/18 06:29:48;;;;;;;6.47;5.33;;;;;;;;;;5005355;28;20209;-70
2022/04/18 06:32:14;;;;;;;6.93;5.00;;;;;;;;;;5002135;28;20179;-70
2022/04/18 06:34:39;;;;;;;7.57;5.13;;;;;;;;;;5008012;28;20185;-70
2022/04/18 06:37:04;;;;;;;5.43;4.93;;;;;;;;;;5008191;28;20185;-70
2022/04/18 06:39:29;;;;;;;5.43;4.90;;;;;;;;;;5004428;28;20246;-71
2022/04/18 06:41:55;;;;;;;7.50;5.47;;;;;;;;;;5010623;28;20183;-71
2022/04/18 06:44:20;;;;;;;7.07;5.10;;;;;;;;;;5002437;28;20546;-71
2022/04/18 06:46:45;;;;;;;6.27;5.37;;;;;;;;;;5006322;28;20205;-71
2022/04/18 06:49:11;;;;;;;6.47;5.50;;;;;;;;;;4999294;28;20564;-71
2022/04/18 06:51:36;;;;;;;5.07;4.57;;;;;;;;;;5009196;28;20195;-70
2022/04/18 06:54:01;;;;;;;5.10;4.50;;;;;;;;;;4998248;28;20179;-70
2022/04/18 06:59:10;;;;;;;5.33;4.73;;;;;;;;;;5007418;28;20182;-69
2022/04/18 07:01:35;;;;;;;6.57;4.80;;;;;;;;;;5006778;28;20210;-71
2022/04/18 07:04:00;;;;;;;5.97;4.53;;;;;;;;;;5007572;28;20245;-72
2022/04/18 07:06:26;;;;;;;4.95;4.55;;;;;;;;;;5007901;28;20645;-70
2022/04/18 07:08:51;;;;;;;5.32;4.47;;;;;;;;;;4995603;28;20179;-70
2022/04/18 07:11:16;;;;;;;5.82;4.85;;;;;;;;;;5006529;28;20203;-70
2022/04/18 07:13:41;;;;;;;5.10;4.60;;;;;;;;;;5004739;28;20175;-71
2022/04/18 07:16:07;;;;;;;5.18;4.68;;;;;;;;;;5005822;28;20436;-71
2022/04/18 07:18:32;;;;;;;7.32;4.70;;;;;;;;;;5007777;28;20645;-70
2022/04/18 07:20:58;;;;;;;5.40;4.30;;;;;;;;;;5007892;28;20199;-70
2022/04/18 07:23:23;;;;;;;4.70;4.22;;;;;;;;;;5007432;28;20683;-70
2022/04/18 07:25:48;;;;;;;6.15;4.45;;;;;;;;;;5006271;28;20204;-71
2022/04/18 07:28:13;;;;;;;4.90;3.63;;;;;;;;;;5009818;28;20625;-70
2022/04/18 07:30:38;;;;;;;5.05;4.25;;;;;;;;;;5006944;28;20202;-71
2022/04/18 07:33:04;;;;;;;6.93;4.37;;;;;;;;;;5007691;28;20645;-69
2022/04/18 07:35:29;;;;;;;7.15;4.07;;;;;;;;;;5010679;28;20435;-69
2022/04/18 07:40:38;;;;;;;5.00;3.75;;;;;;;;;;5004446;28;20699;-68
2022/04/18 07:43:03;;;;;;;4.90;4.47;;;;;;;;;;5009085;28;20191;-70
2022/04/18 07:45:28;;;;;;;4.68;4.28;;;;;;;;;;5004786;28;20676;-70
2022/04/18 07:47:54;;;;;;;5.53;3.70;;;;;;;;;;5009237;28;20210;-70
2022/04/18 07:50:19;;;;;;;4.60;3.67;;;;;;;;;;5010214;28;20448;-70
2022/04/18 07:52:44;;;;;;;5.28;4.10;;;;;;;;;;5005963;28;20417;-71
2022/04/18 07:55:09;;;;;;;3.80;3.50;;;;;;;;;;5010459;28;20179;-70
2022/04/18 07:57:37;;;;;;;4.15;3.75;;;;;;;;;;5007517;28;20608;-68
2022/04/18 08:00:03;;;;;;;3.80;3.40;;;;;;;;;;5011173;28;20217;-69
2022/04/18 08:02:28;;;;;;;4.07;3.70;;;;;;;;;;5012364;28;20420;-69
2022/04/18 08:04:53;;;;;;;5.70;4.13;;;;;;;;;;5011770;28;20670;-69
2022/04/18 08:07:18;;;;;;;4.15;3.47;;;;;;;;;;5010093;28;20478;-70
2022/04/18 08:09:43;;;;;;;3.80;3.30;;;;;;;;;;5005332;28;20669;-68
2022/04/18 08:12:12;;;;;;;4.57;3.10;;;;;;;;;;5010663;28;20416;-69
2022/04/18 08:14:37;;;;;;;4.18;3.70;;;;;;;;;;5010541;28;20199;-70
2022/04/18 08:17:02;;;;;;;3.22;2.92;;;;;;;;;;5011228;28;20210;-69
2022/04/18 08:19:28;;;;;;;3.38;3.08;;;;;;;;;;5010847;28;20189;-70
2022/04/18 08:21:53;;;;;;;4.93;3.63;;;;;;;;;;5014633;28;20175;-69
2022/04/18 08:24:18;;;;;;;3.43;2.67;;;;;;;;;;5010751;28;20195;-69
2022/04/18 08:26:45;;;;;;;3.00;2.73;;;;;;;;;;5006192;28;20529;-69
2022/04/18 08:29:11;;;;;;;2.80;2.53;;;;;;;;;;5011590;28;20432;-68
2022/04/18 08:31:36;;;;;;;3.72;2.88;;;;;;;;;;5005861;28;20665;-69
2022/04/18 08:34:01;;;;;;;4.15;2.78;;;;;;;;;;5012365;28;20629;-69
2022/04/18 08:36:27;;;;;;;2.60;2.40;;;;;;;;;;5014707;28;20183;-69
2022/04/18 08:38:52;;;;;;;3.47;2.50;;;;;;;;;;5014047;28;20408;-69
2022/04/18 08:41:20;;;;;;;3.53;2.50;;;;;;;;;;5014437;28;20435;-69
2022/04/18 08:43:46;;;;;;;3.25;2.15;;;;;;;;;;5013147;28;20178;-69
2022/04/18 08:46:11;;;;;;;3.25;2.47;;;;;;;;;;5014847;28;20175;-69
2022/04/18 08:54:05;;;;;;;2.25;2.05;;;;;;;;;;5011249;28;20254;-69
2022/04/18 08:56:31;;;;;;;3.70;3.17;;;;;;;;;;5014334;28;20621;-69
2022/04/18 08:58:56;;;;;;;3.85;2.80;;;;;;;;;;5012619;28;20171;-69
2022/04/18 09:01:22;;;;;;;3.13;2.33;;;;;;;;;;5020028;28;20220;-69
2022/04/18 09:03:47;;;;;;;2.70;2.17;;;;;;;;;;5014157;28;20708;-69
2022/04/18 09:06:13;;;;;;;4.78;2.00;;;;;;;;;;5014236;28;20258;-69
2022/04/18 09:08:42;;;;;;;2.47;2.28;;;;;;;;;;5013483;28;20668;-69
2022/04/18 09:11:07;;;;;;;2.40;2.20;;;;;;;;;;5014148;28;20198;-70
2022/04/18 09:13:33;;;;;;;2.50;2.30;;;;;;;;;;5013858;28;20193;-70
2022/04/18 09:15:58;;;;;;;2.37;2.10;;;;;;;;;;5014287;28;20661;-69
2022/04/18 09:18:24;;;;;;;3.92;2.85;;;;;;;;;;5013317;28;20423;-69
2022/04/18 09:20:56;;;;;;;2.53;2.33;;;;;;;;;;5014099;28;20225;-69
2022/04/18 09:23:32;;;;;;;2.55;2.22;;;;;;;;;;5013418;28;20193;-69
2022/04/18 09:26:01;;;;;;;2.58;2.33;;;;;;;;;;5009129;28;20193;-69
2022/04/18 09:28:33;;;;;;;3.42;2.80;;;;;;;;;;5013647;28;20215;-69
2022/04/18 09:31:01;;;;;;;2.75;2.55;;;;;;;;;;5012398;28;20215;-69
2022/04/18 09:33:30;;;;;;;3.28;2.90;;;;;;;;;;5011399;28;20669;-68
2022/04/18 09:36:08;;;;;;;2.88;2.60;;;;;;;;;;5010730;28;20660;-69
2022/04/18 09:38:43;;;;;;;4.68;2.90;;;;;;;;;;5011287;28;20225;-69
2022/04/18 09:41:11;;;;;;;2.97;2.72;;;;;;;;;;5011716;28;20190;-69
2022/04/18 09:43:46;;;;;;;3.92;3.38;;;;;;;;;;5002458;28;20187;-69
2022/04/18 09:46:12;;;;;;;3.45;2.75;;;;;;;;;;5012185;28;20186;-70
2022/04/18 09:48:38;;;;;;;2.38;2.15;;;;;;;;;;5005859;28;20210;-69
2022/04/18 09:51:08;;;;;;;4.88;2.90;;;;;;;;;;5009443;28;20670;-69
2022/04/18 09:53:34;;;;;;;5.93;2.63;;;;;;;;;;5008529;28;20179;-69
2022/04/18 09:55:59;;;;;;;2.92;2.50;;;;;;;;;;5008440;28;20283;-70
2022/04/18 09:58:25;;;;;;;3.05;2.60;;;;;;;;;;5009601;28;20682;-69
2022/04/18 10:00:50;;;;;;;3.08;2.60;;;;;;;;;;5011152;28;20211;-69
2022/04/18 10:03:16;;;;;;;2.78;2.40;;;;;;;;;;4994095;28;20278;-69
2022/04/18 10:05:42;;;;;;;4.05;2.60;;;;;;;;;;5010562;28;20257;-69
2022/04/18 10:08:07;;;;;;;2.72;2.50;;;;;;;;;;5003220;28;20289;-69
2022/04/18 10:10:33;;;;;;;3.28;2.33;;;;;;;;;;5009605;28;20256;-69
2022/04/18 10:12:58;;;;;;;2.65;2.45;;;;;;;;;;5012581;28;20167;-69
2022/04/18 10:15:23;;;;;;;3.30;2.35;;;;;;;;;;5008042;28;20190;-69
2022/04/18 10:17:49;;;;;;;5.43;2.55;;;;;;;;;;5004599;28;20186;-69
2022/04/18 10:20:14;;;;;;;2.42;2.22;;;;;;;;;;4995422;28;20210;-69
2022/04/18 10:22:45;;;;;;;3.83;2.20;;;;;;;;;;5006578;28;20672;-69
2022/04/18 10:25:16;;;;;;;2.50;2.30;;;;;;;;;;5009342;28;20727;-70
2022/04/18 10:28:01;;;;;;;2.67;2.47;;;;;;;;;;4998662;28;20207;-68
2022/04/18 10:30:26;;;;;;;3.75;2.35;;;;;;;;;;5010294;28;20195;-68
2022/04/18 10:32:52;;;;;;;2.40;2.20;;;;;;;;;;5007255;28;20294;-68
2022/04/18 10:35:17;;;;;;;3.13;2.30;;;;;;;;;;5007900;28;20198;-69
2022/04/18 10:37:43;;;;;;;2.30;2.10;;;;;;;;;;5005514;28;20187;-68
2022/04/18 10:40:08;;;;;;;5.25;2.33;;;;;;;;;;5004079;28;20866;-68
2022/04/18 10:42:34;;;;;;;2.15;1.90;;;;;;;;;;5008506;28;20292;-69
2022/04/18 10:45:01;;;;;;;3.65;2.60;;;;;;;;;;5007900;28;20189;-69
2022/04/18 10:47:26;;;;;;;2.40;2.20;;;;;;;;;;5007702;28;20609;-68
2022/04/18 10:50:14;;;;;;;2.65;2.17;;;;;;;;;;5008527;28;20245;-69
2022/04/18 10:52:39;;;;;;;2.38;2.10;;;;;;;;;;5008813;28;20573;-69
2022/04/18 10:55:04;;;;;;;5.45;2.53;;;;;;;;;;5008244;28;20179;-69
2022/04/18 10:57:30;;;;;;;3.28;2.40;;;;;;;;;;5008927;28;20328;-68
2022/04/18 10:59:55;;;;;;;2.83;2.10;;;;;;;;;;5006931;28;20257;-69
2022/04/18 11:02:36;;;;;;;2.30;2.10;;;;;;;;;;5016681;28;20183;-68
2022/04/18 11:05:01;;;;;;;2.60;2.25;;;;;;;;;;5006562;28;20237;-69
2022/04/18 11:07:36;;;;;;;2.63;2.03;;;;;;;;;;5007477;28;20211;-68
2022/04/18 11:10:02;;;;;;;2.25;2.00;;;;;;;;;;5009623;28;20535;-69
2022/04/18 11:12:28;;;;;;;3.05;2.10;;;;;;;;;;5002542;28;20917;-68
2022/04/18 11:14:54;;;;;;;11.63;3.60;;;;;;;;;;5009251;28;20179;-68
2022/04/18 11:17:40;;;;;;;2.40;2.20;;;;;;;;;;5007399;28;20273;-68
2022/04/18 11:20:24;;;;;;;3.55;2.70;;;;;;;;;;4997943;28;20276;-68
2022/04/18 11:23:08;;;;;;;2.38;2.17;;;;;;;;;;5010514;28;20181;-69
2022/04/18 11:25:51;;;;;;;2.60;2.22;;;;;;;;;;5002989;28;20559;-68
2022/04/18 11:28:17;;;;;;;2.58;2.38;;;;;;;;;;4996287;28;20194;-69
2022/04/18 11:30:42;;;;;;;4.03;2.60;;;;;;;;;;5007177;28;20203;-69
2022/04/18 11:33:07;;;;;;;2.33;2.10;;;;;;;;;;4999674;28;20180;-68
2022/04/18 11:35:34;;;;;;;3.00;2.70;;;;;;;;;;5005804;28;20436;-68
2022/04/18 11:38:06;;;;;;;2.88;2.60;;;;;;;;;;5007413;28;20487;-68
2022/04/18 11:40:35;;;;;;;5.82;2.83;;;;;;;;;;5008084;28;20867;-69
2022/04/18 11:43:00;;;;;;;3.70;2.60;;;;;;;;;;5003921;28;20178;-68
2022/04/18 11:45:25;;;;;;;3.00;2.70;;;;;;;;;;5009930;28;20711;-69
2022/04/18 11:47:51;;;;;;;3.08;2.88;;;;;;;;;;5008784;28;20673;-68
2022/04/18 11:50:21;;;;;;;2.75;2.42;;;;;;;;;;5006545;28;20195;-69
2022/04/18 11:52:47;;;;;;;2.55;2.22;;;;;;;;;;5001313;28;20225;-68
2022/04/18 11:55:17;;;;;;;2.22;1.80;;;;;;;;;;5005377;28;20555;-67
2022/04/18 11:57:47;;;;;;;1.98;1.60;;;;;;;;;;5005940;28;20178;-68
2022/04/18 12:00:13;;;;;;;2.45;1.70;;;;;;;;;;5005525;28;20297;-68
2022/04/18 12:08:11;;;;;;;2.17;1.83;;;;;;;;;;5009138;28;20254;-67
2022/04/18 12:10:38;;;;;;;1.85;1.63;;;;;;;;;;5007489;28;20226;-68
2022/04/18 12:13:04;;;;;;;2.65;2.08;;;;;;;;;;5002326;28;20170;-68
2022/04/18 12:15:30;;;;;;;2.97;2.00;;;;;;;;;;5008531;28;20189;-68
2022/04/18 12:17:56;;;;;;;3.17;2.05;;;;;;;;;;5008390;28;20179;-68
2022/04/18 12:20:21;;;;;;;2.65;2.00;;;;;;;;;;5010826;28;20215;-68
2022/04/18 12:22:52;;;;;;;1.83;1.73;;;;;;;;;;5010843;28;20175;-68
2022/04/18 12:25:21;;;;;;;1.92;1.73;;;;;;;;;;5009521;28;20258;-68
2022/04/18 12:27:46;;;;;;;2.25;1.67;;;;;;;;;;5010476;28;20195;-68
2022/04/18 12:30:11;;;;;;;2.92;1.70;;;;;;;;;;5010939;28;20197;-69
2022/04/18 12:32:38;;;;;;;3.00;2.03;;;;;;;;;;5009195;28;20171;-68
2022/04/18 12:35:03;;;;;;;3.50;1.80;;;;;;;;;;5011194;28;20563;-69
2022/04/18 12:37:30;;;;;;;2.10;1.90;;;;;;;;;;5010883;28;20269;-68
2022/04/18 12:40:08;;;;;;;2.58;2.38;;;;;;;;;;5009057;28;20206;-68
2022/04/18 12:42:33;;;;;;;3.53;2.08;;;;;;;;;;5010738;28;20177;-68
2022/04/18 12:44:59;;;;;;;2.27;2.07;;;;;;;;;;5002167;28;20186;-69
2022/04/18 12:47:25;;;;;;;2.00;1.80;;;;;;;;;;5020379;28;20207;-69
2022/04/18 12:50:06;;;;;;;3.25;2.15;;;;;;;;;;5012835;28;20887;-68
2022/04/18 12:52:32;;;;;;;3.50;1.92;;;;;;;;;;5011443;28;20171;-68
2022/04/18 12:55:04;;;;;;;2.03;1.50;;;;;;;;;;5009641;28;20178;-68
2022/04/18 12:57:30;;;;;;;1.67;1.58;;;;;;;;;;5012435;28;20213;-68
2022/04/18 13:00:07;;;;;;;1.83;1.67;;;;;;;;;;5007430;28;20211;-68
2022/04/18 13:02:32;;;;;;;3.97;2.20;;;;;;;;;;4999931;28;20261;-68
2022/04/18 13:05:00;;;;;;;2.93;2.03;;;;;;;;;;5001343;28;20266;-68
2022/04/18 13:07:25;;;;;;;2.20;1.80;;;;;;;;;;5004499;28;20245;-68
2022/04/18 13:10:03;;;;;;;3.87;1.57;;;;;;;;;;5004250;28;20212;-68
2022/04/18 13:12:33;;;;;;;2.35;2.15;;;;;;;;;;5010503;28;20423;-68
2022/04/18 13:14:59;;;;;;;2.40;2.20;;;;;;;;;;5006403;28;20218;-68
2022/04/18 13:17:24;;;;;;;3.78;2.53;;;;;;;;;;5011117;28;20183;-68
2022/04/18 13:19:50;;;;;;;2.60;2.40;;;;;;;;;;5009905;28;20218;-69
2022/04/18 13:22:15;;;;;;;3.70;3.00;;;;;;;;;;5009762;28;20503;-68
2022/04/18 13:24:40;;;;;;;5.67;4.17;;;;;;;;;;5006530;28;20432;-67
2022/04/18 13:27:05;;;;;;;3.10;2.80;;;;;;;;;;5008624;28;20254;-68
2022/04/18 13:29:31;;;;;;;4.37;2.23;;;;;;;;;;5013836;28;20202;-68
2022/04/18 13:31:56;;;;;;;4.40;2.63;;;;;;;;;;5012631;28;20404;-68
2022/04/18 13:34:22;;;;;;;2.63;2.42;;;;;;;;;;5013150;28;20669;-67
2022/04/18 13:36:47;;;;;;;2.95;2.30;;;;;;;;;;5006900;28;20187;-68
2022/04/18 13:39:13;;;;;;;2.55;2.35;;;;;;;;;;5006362;28;20183;-68
2022/04/18 13:41:39;;;;;;;3.70;2.80;;;;;;;;;;5012215;28;20273;-68
2022/04/18 13:44:05;;;;;;;2.83;2.63;;;;;;;;;;5009309;28;20202;-68
2022/04/18 13:46:30;;;;;;;3.10;2.80;;;;;;;;;;5008784;28;20215;-68
2022/04/18 13:48:56;;;;;;;2.97;2.78;;;;;;;;;;5014702;28;20196;-67
2022/04/18 13:51:23;;;;;;;3.50;2.67;;;;;;;;;;5013793;28;20202;-68
2022/04/18 13:53:48;;;;;;;4.80;2.50;;;;;;;;;;5012997;28;20345;-68
2022/04/18 13:56:14;;;;;;;3.20;2.90;;;;;;;;;;5002869;28;20275;-68
2022/04/18 13:58:39;;;;;;;2.58;2.38;;;;;;;;;;5007102;28;20662;-68
2022/04/18 14:01:05;;;;;;;3.75;2.35;;;;;;;;;;5011236;28;20269;-67
2022/04/18 14:03:31;;;;;;;2.55;2.35;;;;;;;;;;5011522;28;20198;-68
2022/04/18 14:05:57;;;;;;;3.47;2.47;;;;;;;;;;5012406;28;20179;-68
2022/04/18 14:08:22;;;;;;;2.60;2.40;;;;;;;;;;5007535;28;20207;-67
2022/04/18 14:10:47;;;;;;;4.13;2.70;;;;;;;;;;5011754;28;20190;-67
2022/04/18 14:13:12;;;;;;;2.80;2.50;;;;;;;;;;5009582;28;20435;-68
2022/04/18 14:21:05;;;;;;;3.03;2.75;;;;;;;;;;5010020;28;20205;-68
2022/04/18 14:23:31;;;;;;;3.28;2.83;;;;;;;;;;5012208;28;20254;-68
2022/04/18 14:25:56;;;;;;;4.38;2.80;;;;;;;;;;5011185;28;20179;-67
2022/04/18 14:28:21;;;;;;;2.65;2.45;;;;;;;;;;5003389;28;20210;-67
2022/04/18 14:30:46;;;;;;;3.00;2.53;;;;;;;;;;5012296;28;20693;-68
2022/04/18 14:33:12;;;;;;;4.17;3.13;;;;;;;;;;5010046;28;20206;-66
2022/04/18 14:35:37;;;;;;;2.83;2.50;;;;;;;;;;5012109;28;20825;-68
2022/04/18 14:38:04;;;;;;;4.18;2.97;;;;;;;;;;5010678;28;20595;-68
2022/04/18 14:40:29;;;;;;;6.40;2.85;;;;;;;;;;5012430;28;20226;-68
2022/04/18 14:42:54;;;;;;;3.00;2.70;;;;;;;;;;5011513;28;20185;-67
2022/04/18 14:45:19;;;;;;;3.58;2.83;;;;;;;;;;5010317;28;20183;-67
2022/04/18 14:47:45;;;;;;;3.53;2.67;;;;;;;;;;5009936;28;20267;-68
2022/04/18 14:50:10;;;;;;;4.50;3.00;;;;;;;;;;5010980;28;20591;-67
2022/04/18 14:52:35;;;;;;;2.87;2.60;;;;;;;;;;5010779;28;20270;-68
2022/04/18 14:55:00;;;;;;;2.67;2.47;;;;;;;;;;5012777;28;20784;-68
2022/04/18 14:57:25;;;;;;;3.27;2.97;;;;;;;;;;5010219;28;20977;-67
2022/04/18 14:59:51;;;;;;;3.30;2.80;;;;;;;;;;5008362;28;20203;-68
2022/04/18 15:02:17;;;;;;;4.13;3.35;;;;;;;;;;5012033;28;20668;-67